Time;durP1;ratioP1;P1;durP2;ratioP2;P2;SDS_P1;SDS_P2;PMS_P1;PMS_P2;Temp;Humidity;BMP_temperature;BMP_pressure;BME280_temperature;BME280_humidity;BME280_pressure;Samples;Min_cycle;Max_cycle;Signal;HPM_P1;HPM_P2
2022/11/25 00:00:05;;;;;;;0.10;0.10;;;;;;;-4.97;72.34;100444.22;6151458;23;20025;-69
2022/11/25 00:02:42;;;;;;;0.10;0.10;;;;;;;-5.00;72.03;100453.38;6186233;23;20534;-69
2022/11/25 00:05:08;;;;;;;0.10;0.10;;;;;;;-5.08;72.06;100450.66;6147925;23;20024;-70
2022/11/25 00:07:36;;;;;;;0.10;0.10;;;;;;;-5.06;72.21;100451.34;6190120;23;20369;-69
2022/11/25 00:10:02;;;;;;;;;;;;;;;-5.06;71.98;100439.84;6175921;23;20039;-69
2022/11/25 00:12:28;;;;;;;;;;;;;;;-5.13;71.91;100448.44;6176936;23;20259;-69
2022/11/25 00:14:54;;;;;;;;;;;;;;;-5.14;71.69;100444.13;6149832;23;20006;-69
2022/11/25 00:17:20;;;;;;;;;;;;;;;-5.18;71.82;100448.09;6187169;23;19920;-69
2022/11/25 00:19:47;;;;;;;;;;;;;;;-5.16;71.49;100448.78;6178354;23;20046;-69
2022/11/25 00:22:13;;;;;;;;;;;;;;;-5.10;71.42;100457.13;6187017;23;19927;-69
2022/11/25 00:24:40;;;;;;;;;;;;;;;-5.08;71.29;100453.31;6173180;23;20267;-70
2022/11/25 00:27:06;;;;;;;;;;;;;;;-5.04;71.09;100460.00;6149304;23;20312;-69
2022/11/25 00:29:33;;;;;;;;;;;;;;;-5.05;70.98;100461.00;6177348;23;20259;-69
2022/11/25 00:31:59;;;;;;;;;;;;;;;-5.07;70.67;100464.81;6150222;23;19944;-68
2022/11/25 00:34:25;;;;;;;;;;;;;;;-5.14;70.93;100464.63;6157988;23;19920;-68
2022/11/25 00:36:52;;;;;;;;;;;;;;;-5.09;70.68;100465.00;6144739;23;20043;-68
2022/11/25 00:39:18;;;;;;;;;;;;;;;-5.06;70.82;100472.69;6157480;23;19920;-68
2022/11/25 00:44:36;;;;;;;;;;;;;;;-5.21;70.92;100472.41;6150123;23;19920;-68
2022/11/25 00:47:02;;;;;;;;;;;;;;;-5.33;71.21;100482.47;6186000;23;20375;-68
2022/11/25 00:49:28;;;;;;;;;;;;;;;-5.46;71.75;100484.69;6147595;23;19920;-68
2022/11/25 00:51:54;;;;;;;;;;;;;;;-5.52;71.92;100466.63;6173748;23;20363;-68
2022/11/25 00:54:19;;;;;;;;;;;;;;;-5.56;72.34;100479.41;6148749;23;20339;-67
2022/11/25 00:56:47;;;;;;;;;;;;;;;-5.52;72.21;100472.81;6184745;23;19927;-68
2022/11/25 00:59:12;;;;;;;;;;;;;;;-5.47;72.45;100475.00;6198671;23;20375;-68
2022/11/25 01:01:38;;;;;;;;;;;;;;;-5.39;72.49;100477.75;6123245;23;19920;-67
2022/11/25 01:04:05;;;;;;;;;;;;;;;-5.27;72.51;100465.88;6124789;23;19920;-68
2022/11/25 01:06:31;;;;;;;;;;;;;;;-5.17;72.26;100472.91;6149393;23;19943;-68
2022/11/25 01:08:57;;;;;;;;;;;;;;;-5.23;72.17;100476.22;6157153;23;20372;-66
2022/11/25 01:11:23;;;;;;;;;;;;;;;-5.27;72.33;100484.53;6148773;23;19920;-66
2022/11/25 01:13:53;;;;;;;;;;;;;;;-5.24;72.57;100479.88;6173044;23;19920;-67
2022/11/25 01:16:21;;;;;;;;;;;;;;;-5.24;72.57;100483.38;6155107;23;19920;-67
2022/11/25 01:18:47;;;;;;;;;;;;;;;-5.25;72.52;100481.69;6171721;23;19942;-68
2022/11/25 01:21:14;;;;;;;;;;;;;;;-5.22;72.71;100492.06;6174256;23;20271;-67
2022/11/25 01:23:40;;;;;;;;;;;;;;;-5.19;72.73;100485.56;6158696;23;19943;-67
2022/11/25 01:26:07;;;;;;;;;;;;;;;-5.20;72.94;100482.09;6150996;23;20448;-67
2022/11/25 01:28:33;;;;;;;;;;;;;;;-5.17;72.83;100494.25;6127861;23;19924;-67
2022/11/25 01:31:00;;;;;;;;;;;;;;;-5.16;72.64;100499.44;6161246;23;20078;-67
2022/11/25 01:33:26;;;;;;;;;;;;;;;-5.19;72.77;100494.44;6175668;23;19920;-67
2022/11/25 01:35:52;;;;;;;;;;;;;;;-5.13;72.85;100504.47;6210774;23;20563;-67
2022/11/25 01:38:18;;;;;;;;;;;;;;;-5.09;72.67;100498.81;6184678;23;19920;-67
2022/11/25 01:40:43;;;;;;;;;;;;;;;-5.20;73.04;100505.22;6161975;23;19920;-67
2022/11/25 01:43:12;;;;;;;;;;;;;;;-5.18;73.34;100505.91;6188202;23;19947;-67
2022/11/25 01:45:38;;;;;;;;;;;;;;;-5.11;72.89;100509.66;6160863;23;20020;-67
2022/11/25 01:48:11;;;;;;;;;;;;;;;-5.15;73.29;100506.44;6183747;23;19990;-67
2022/11/25 01:50:38;;;;;;;;;;;;;;;-5.19;73.25;100509.56;6187948;23;19920;-67
2022/11/25 01:53:07;;;;;;;;;;;;;;;-5.21;73.67;100514.22;6160570;23;19920;-67
2022/11/25 01:55:35;;;;;;;;;;;;;;;-5.21;73.73;100515.06;6210932;23;19924;-68
2022/11/25 01:58:05;;;;;;;;;;;;;;;-5.13;73.44;100514.31;6148156;23;20476;-67
2022/11/25 02:00:31;;;;;;;;;;;;;;;-5.12;73.56;100511.47;6209679;23;19924;-67
2022/11/25 02:02:57;;;;;;;;;;;;;;;-5.07;73.43;100503.00;6149080;23;19927;-69
2022/11/25 02:05:29;;;;;;;;;;;;;;;-5.04;73.30;100500.03;6149594;23;19920;-68
2022/11/25 02:07:55;;;;;;;;;;;;;;;-5.03;73.15;100500.88;6187907;23;19975;-67
2022/11/25 02:10:24;;;;;;;;;;;;;;;-5.02;73.07;100500.72;6137210;23;19920;-66
2022/11/25 02:12:50;;;;;;;;;;;;;;;-5.07;73.20;100513.69;6187873;23;20366;-67
2022/11/25 02:15:16;;;;;;;;;;;;;;;-5.10;73.26;100510.47;6125312;23;19920;-67
2022/11/25 02:17:42;;;;;;;;;;;;;;;-5.11;73.26;100515.00;6149989;23;19924;-67
2022/11/25 02:20:10;;;;;;;;;;;;;;;-5.09;73.03;100513.00;6148624;23;19920;-67
2022/11/25 02:22:44;;;;;;;;;;;;;;;-5.07;73.17;100510.16;6176243;23;19921;-67
2022/11/25 02:25:13;;;;;;;;;;;;;;;-5.03;73.31;100507.03;6157623;23;19928;-67
2022/11/25 02:27:40;;;;;;;;;;;;;;;-4.95;73.16;100510.78;6184520;23;19964;-66
2022/11/25 02:30:06;;;;;;;;;;;;;;;-4.94;73.09;100510.59;6185357;23;19920;-67
2022/11/25 02:32:32;;;;;;;;;;;;;;;-5.00;72.81;100504.06;6159588;23;20344;-67
2022/11/25 02:34:59;;;;;;;;;;;;;;;-5.01;72.99;100504.22;6146705;23;19927;-67
2022/11/25 02:37:25;;;;;;;;;;;;;;;-5.06;72.72;100498.53;6152398;23;19920;-67
2022/11/25 02:39:52;;;;;;;;;;;;;;;-5.10;72.65;100502.47;6178529;23;20457;-67
2022/11/25 02:42:20;;;;;;;;;;;;;;;-5.15;72.80;100498.44;6163150;23;20252;-67
2022/11/25 02:44:46;;;;;;;;;;;;;;;-5.14;72.66;100508.13;6123290;23;19959;-67
2022/11/25 02:47:12;;;;;;;;;;;;;;;-5.22;72.88;100505.41;6151263;23;19975;-67
2022/11/25 02:49:38;;;;;;;;;;;;;;;-5.16;72.99;100517.25;6124987;23;19920;-66
2022/11/25 02:52:04;;;;;;;;;;;;;;;-5.15;72.86;100514.44;6159838;23;20344;-67
2022/11/25 02:54:30;;;;;;;;;;;;;;;-5.11;72.68;100520.31;6150296;23;19920;-67
2022/11/25 02:56:56;;;;;;;;;;;;;;;-5.11;72.27;100528.31;6149770;23;20443;-67
2022/11/25 02:59:23;;;;;;;;;;;;;;;-5.09;72.59;100528.16;6187642;23;19946;-67
2022/11/25 03:01:49;;;;;;;;;;;;;;;-5.07;72.67;100536.84;6158053;23;20058;-66
2022/11/25 03:04:15;;;;;;;;;;;;;;;-5.04;72.52;100544.56;6161584;23;19920;-66
2022/11/25 03:06:41;;;;;;;;;;;;;;;-4.96;72.30;100549.13;6185049;23;19920;-67
2022/11/25 03:09:06;;;;;;;;;;;;;;;-4.99;72.42;100544.91;6184471;23;19920;-67
2022/11/25 03:14:21;;;;;;;;;;;;;;;-4.92;72.46;100548.63;6160450;23;19919;-67
2022/11/25 03:16:48;;;;;;;;;;;;;;;-5.00;72.00;100549.41;6157828;23;19927;-67
2022/11/25 03:19:14;;;;;;;;;;;;;;;-5.06;72.46;100554.53;6207772;23;19974;-67
2022/11/25 03:21:39;;;;;;;;;;;;;;;-5.01;72.57;100557.56;6175590;23;19920;-67
2022/11/25 03:24:06;;;;;;;;;;;;;;;-5.02;72.36;100564.72;6159022;23;20002;-66
2022/11/25 03:26:32;;;;;;;;;;;;;;;-5.02;72.62;100563.91;6173963;23;19993;-67
2022/11/25 03:28:58;;;;;;;;;;;;;;;-5.03;72.73;100573.72;6184038;23;19920;-68
2022/11/25 03:31:23;;;;;;;;;;;;;;;-5.07;72.87;100574.19;6124430;23;20275;-67
2022/11/25 03:33:50;;;;;;;;;;;;;;;-4.99;72.70;100583.13;6161150;23;20003;-67
2022/11/25 03:36:16;;;;;;;;;;;;;;;-4.89;72.72;100583.03;6160098;23;19920;-67
2022/11/25 03:38:42;;;;;;;;;;;;;;;-4.91;72.33;100578.81;6124634;23;19975;-67
2022/11/25 03:41:08;;;;;;;;;;;;;;;-4.96;72.61;100581.13;6152869;23;19924;-67
2022/11/25 03:43:34;;;;;;;;;;;;;;;-5.01;72.63;100581.59;6207156;23;19929;-67
2022/11/25 03:46:00;;;;;;;;;;;;;;;-5.00;73.03;100585.94;6197092;23;19965;-67
2022/11/25 03:48:26;;;;;;;;;;;;;;;-4.96;72.84;100589.13;6174067;23;19920;-67
2022/11/25 03:50:53;;;;;;;;;;;;;;;-4.93;72.99;100594.16;6123541;23;20343;-67
2022/11/25 03:53:19;;;;;;;;;;;;;;;-4.93;73.22;100597.66;6148844;23;19983;-67
2022/11/25 03:55:46;;;;;;;;;;;;;;;-4.92;73.05;100599.31;6133423;23;20311;-68
2022/11/25 03:58:12;;;;;;;;;;;;;;;-4.89;72.97;100603.53;6159779;23;19971;-67
2022/11/25 04:00:38;;;;;;;;;;;;;;;-4.85;73.18;100604.88;6153897;23;19924;-67
2022/11/25 04:03:04;;;;;;;;;;;;;;;-4.79;73.15;100598.94;6209846;23;19932;-67
2022/11/25 04:05:31;;;;;;;;;;;;;;;-4.81;73.04;100595.59;6122917;23;19920;-67
2022/11/25 04:08:02;;;;;;;;;;;;;;;-4.90;73.23;100605.38;6203092;23;20326;-67
2022/11/25 04:10:30;;;;;;;;;;;;;;;-4.89;73.22;100598.19;6197480;23;19920;-67
2022/11/25 04:12:57;;;;;;;;;;;;;;;-4.90;73.67;100596.50;6123135;23;19920;-67
2022/11/25 04:15:31;;;;;;;;;;;;;;;-4.88;73.62;100603.38;6173272;23;19931;-67
2022/11/25 04:17:58;;;;;;;;;;;;;;;-4.91;73.76;100601.03;6154365;23;19920;-67
2022/11/25 04:20:24;;;;;;;;;;;;;;;-4.87;73.76;100606.88;6156919;23;19920;-68
2022/11/25 04:22:56;;;;;;;;;;;;;;;-4.86;73.87;100613.88;6201058;23;19920;-67
2022/11/25 04:25:23;;;;;;;;;;;;;;;-4.83;74.05;100602.94;6151772;23;20743;-69
2022/11/25 04:27:50;;;;;;;;;;;;;;;-4.75;74.02;100604.81;6147176;23;20015;-69
2022/11/25 04:30:21;;;;;;;;;;;;;;;-4.74;73.82;100603.81;6124806;23;19967;-67
2022/11/25 04:32:47;;;;;;;;;;;;;;;-4.79;74.12;100614.97;6150140;23;20308;-67
2022/11/25 04:35:13;;;;;;;;;;;;;;;-4.76;74.15;100616.47;6160451;23;20410;-68
2022/11/25 04:37:43;;;;;;;;;;;;;;;-4.78;74.20;100615.78;6160805;23;20004;-68
2022/11/25 04:40:10;;;;;;;;;;;;;;;-4.92;74.23;100598.50;6158851;23;19924;-68
2022/11/25 04:42:38;;;;;;;;;;;;;;;-4.90;74.36;100612.53;6124333;23;19920;-68
2022/11/25 04:45:10;;;;;;;;;;;;;;;-4.95;74.88;100612.16;6201095;23;20374;-67
2022/11/25 04:47:36;;;;;;;;;;;;;;;-4.92;75.04;100614.50;6160204;23;19931;-67
2022/11/25 04:50:03;;;;;;;;;;;;;;;-4.86;74.88;100627.22;6148523;23;20351;-67
2022/11/25 04:52:30;;;;;;;;;;;;;;;-4.81;74.80;100618.75;6157669;23;19962;-67
2022/11/25 04:54:56;;;;;;;;;;;;;;;-4.75;74.83;100618.16;6172342;23;20375;-67
2022/11/25 04:57:22;;;;;;;;;;;;;;;-4.71;74.55;100617.69;6167541;23;19996;-67
2022/11/25 04:59:49;;;;;;;;;;;;;;;-4.81;74.65;100610.75;6156801;23;19920;-68
2022/11/25 05:02:16;;;;;;;;;;;;;;;-4.73;74.63;100617.00;6127044;23;19920;-67
2022/11/25 05:04:51;;;;;;;;;;;;;;;-4.62;74.53;100623.91;6189774;23;19920;-68
2022/11/25 05:07:18;;;;;;;;;;;;;;;-4.62;74.39;100617.75;6148157;23;19920;-68
2022/11/25 05:09:47;;;;;;;;;;;;;;;-4.63;74.43;100621.41;6199998;23;20033;-67
2022/11/25 05:12:18;;;;;;;;;;;;;;;-4.74;74.51;100614.50;6191128;23;20326;-67
2022/11/25 05:14:44;;;;;;;;;;;;;;;-4.84;74.79;100617.22;6198650;23;19974;-67
2022/11/25 05:17:12;;;;;;;;;;;;;;;-4.81;75.17;100611.59;6172765;23;19955;-67
2022/11/25 05:19:38;;;;;;;;;;;;;;;-4.82;75.18;100615.28;6154448;23;20213;-68
2022/11/25 05:22:05;;;;;;;;;;;;;;;-4.84;75.39;100620.75;6173423;23;19928;-67
2022/11/25 05:24:31;;;;;;;;;;;;;;;-4.85;75.10;100623.56;6133179;23;19920;-67
2022/11/25 05:26:57;;;;;;;;;;;;;;;-4.88;75.39;100619.38;6124422;23;19920;-68
2022/11/25 05:29:23;;;;;;;;;;;;;;;-4.81;75.14;100618.75;6181904;23;19920;-68
2022/11/25 05:31:49;;;;;;;;;;;;;;;-4.85;75.41;100618.22;6208614;23;19920;-68
2022/11/25 05:34:16;;;;;;;;;;;;;;;-4.94;75.53;100627.16;6156934;23;19939;-68
2022/11/25 05:36:43;;;;;;;;;;;;;;;-5.13;75.80;100594.31;6154189;23;20031;-68
2022/11/25 05:39:09;;;;;;;;;;;;;;;-4.87;75.69;100630.88;6167519;23;19974;-69
2022/11/25 05:41:53;;;;;;;;;;;;;;;-4.91;75.76;100637.53;6147034;23;19919;-69
2022/11/25 05:44:19;;;;;;;;;;;;;;;-4.93;75.94;100636.84;6149747;23;20368;-69
2022/11/25 05:46:45;;;;;;;;;;;;;;;-4.86;75.62;100637.91;6150032;23;19920;-69
2022/11/25 05:49:11;;;;;;;;;;;;;;;-4.84;75.70;100633.25;6184667;23;20336;-69
2022/11/25 05:51:38;;;;;;;;;;;;;;;-4.86;75.67;100638.75;6121668;23;19920;-68
2022/11/25 05:54:04;;;;;;;;;;;;;;;-4.81;75.70;100643.63;6172489;23;19924;-68
2022/11/25 05:56:32;;;;;;;;;;;;;;;-4.76;75.39;100644.00;6155243;23;19931;-68
2022/11/25 05:59:21;;;;;;;;;;;;;;;-4.83;75.67;100645.63;6133635;23;19974;-67
2022/11/25 06:02:03;;;;;;;;;;;;;;;-4.90;75.79;100642.72;6161812;23;19920;-68
2022/11/25 06:04:29;;;;;;;;;;;;;;;-4.91;75.99;100642.84;6175497;23;19963;-68
2022/11/25 06:06:57;;;;;;;;;;;;;;;-4.82;75.98;100644.63;6160195;23;19920;-67
2022/11/25 06:09:23;;;;;;;;;;;;;;;-4.81;75.82;100651.63;6188826;23;20091;-67
2022/11/25 06:11:50;;;;;;;;;;;;;;;-4.83;75.75;100653.63;6185913;23;19920;-67
2022/11/25 06:14:17;;;;;;;;;;;;;;;-4.82;75.89;100657.97;6175248;23;19952;-67
2022/11/25 06:16:43;;;;;;;;;;;;;;;-4.78;75.88;100655.81;6165477;23;19926;-67
2022/11/25 06:19:20;;;;;;;;;;;;;;;-4.70;75.72;100661.25;6186305;23;20347;-68
2022/11/25 06:21:46;;;;;;;;;;;;;;;-4.65;75.66;100666.94;6151026;23;19970;-67
2022/11/25 06:24:14;;;;;;;;;;;;;;;-4.63;75.54;100664.13;6202088;23;19926;-67
2022/11/25 06:26:42;;;;;;;;;;;;;;;-4.57;75.42;100671.50;6165199;23;19924;-67
2022/11/25 06:29:09;;;;;;;;;;;;;;;-4.54;75.32;100676.53;6127991;23;19924;-67
2022/11/25 06:31:35;;;;;;;;;;;;;;;-4.57;75.18;100683.03;6162170;23;19927;-67
2022/11/25 06:34:29;;;;;;;;;;;;;;;-4.64;75.37;100679.28;6153886;23;19920;-67
2022/11/25 06:36:55;;;;;;;;;;;;;;;-4.65;75.40;100687.47;6164866;23;20291;-67
2022/11/25 06:39:22;;;;;;;;;;;;;;;-4.70;75.71;100685.25;6192944;23;19919;-67
2022/11/25 06:41:48;;;;;;;;;;;;;;;-4.72;75.73;100685.41;6180358;23;19920;-67
2022/11/25 06:44:13;;;;;;;;;;;;;;;-4.76;75.87;100680.50;6187600;23;20007;-67
2022/11/25 06:46:39;;;;;;;;;;;;;;;-4.71;76.13;100679.06;6178345;23;20337;-67
2022/11/25 06:49:06;;;;;;;;;;;;;;;-4.64;75.89;100684.63;6177460;23;20002;-67
2022/11/25 06:51:31;;;;;;;;;;;;;;;-4.70;75.81;100682.59;6150198;23;19982;-68
2022/11/25 06:53:57;;;;;;;;;;;;;;;-4.71;76.01;100686.25;6179552;23;19920;-67
2022/11/25 06:56:25;;;;;;;;;;;;;;;-4.67;75.83;100692.94;6190023;23;20313;-67
2022/11/25 06:58:51;;;;;;;;;;;;;;;-4.60;75.78;100685.16;6152645;23;19919;-67
2022/11/25 07:01:22;;;;;;;;;;;;;;;-4.61;75.33;100694.19;6151603;23;19943;-67
2022/11/25 07:03:49;;;;;;;;;;;;;;;-4.69;75.61;100700.28;6189324;23;19967;-67
2022/11/25 07:06:16;;;;;;;;;;;;;;;-4.68;75.47;100703.78;6153448;23;20007;-67
2022/11/25 07:08:42;;;;;;;;;;;;;;;-4.71;75.41;100697.75;6179986;23;19996;-67
2022/11/25 07:11:11;;;;;;;;;;;;;;;-4.66;75.73;100704.47;6153703;23;19963;-67
2022/11/25 07:13:38;;;;;;;;;;;;;;;-4.57;75.39;100706.22;6154120;23;19927;-67
2022/11/25 07:16:05;;;;;;;;;;;;;;;-4.58;75.48;100715.22;6213041;23;19920;-67
2022/11/25 07:18:31;;;;;;;;;;;;;;;-4.53;75.23;100710.25;6178952;23;20208;-67
2022/11/25 07:21:00;;;;;;;;;;;;;;;-4.59;75.06;100706.38;6187800;23;19951;-68
2022/11/25 07:23:26;;;;;;;;;;;;;;;-4.55;75.01;100712.25;6180077;23;20330;-67
2022/11/25 07:25:52;;;;;;;;;;;;;;;-4.58;74.96;100717.88;6180309;23;19943;-67
2022/11/25 07:28:17;;;;;;;;;;;;;;;-4.60;75.06;100718.06;6178074;23;19920;-68
2022/11/25 07:30:45;;;;;;;;;;;;;;;-4.57;74.82;100711.56;6152836;23;19940;-67
2022/11/25 07:33:10;;;;;;;;;;;;;;;-4.58;74.82;100708.06;6187178;23;19927;-67
2022/11/25 07:35:36;;;;;;;;;;;;;;;-4.52;74.82;100717.28;6152188;23;20241;-67
2022/11/25 07:38:02;;;;;;;;;;;;;;;-4.48;74.54;100724.00;6150421;23;20003;-67
2022/11/25 07:40:28;;;;;;;;;;;;;;;-4.49;74.49;100718.81;6179887;23;20303;-68
2022/11/25 07:42:53;;;;;;;;;;;;;;;-4.46;74.42;100724.69;6190039;23;20020;-68
2022/11/25 07:45:20;;;;;;;;;;;;;;;-4.40;74.59;100720.56;6152713;23;20182;-67
2022/11/25 07:47:52;;;;;;;;;;;;;;;-4.31;74.28;100722.28;6189506;23;20340;-67
2022/11/25 07:50:18;;;;;;;;;;;;;;;-4.24;74.00;100722.50;6189832;23;20010;-67
2022/11/25 07:52:44;;;;;;;;;;;;;;;-4.21;73.50;100722.22;6181595;23;19982;-67
2022/11/25 07:55:09;;;;;;;;;;;;;;;-4.32;73.55;100730.47;6187736;23;20423;-68
2022/11/25 07:57:35;;;;;;;;;;;;;;;-4.36;73.72;100723.78;6162504;23;19919;-67
2022/11/25 08:00:01;;;;;;;;;;;;;;;-4.41;73.70;100726.91;6189294;23;19969;-67
2022/11/25 08:02:37;;;;;;;;;;;;;;;-4.48;73.88;100726.66;6188066;23;20006;-68
2022/11/25 08:05:05;;;;;;;;;;;;;;;-4.50;74.01;100730.47;6184716;23;19947;-67
2022/11/25 08:07:31;;;;;;;;;;;;;;;-4.53;73.87;100733.44;6185837;23;19927;-67
2022/11/25 08:09:56;;;;;;;;;;;;;;;-4.54;73.84;100734.44;6189877;23;20187;-67
2022/11/25 08:12:22;;;;;;;;;;;;;;;-4.59;73.97;100737.56;6152929;23;19920;-67
2022/11/25 08:14:48;;;;;;;;;;;;;;;-4.56;73.96;100739.94;6178128;23;19920;-67
2022/11/25 08:17:13;;;;;;;;;;;;;;;-4.51;73.78;100742.16;6176379;23;20401;-67
2022/11/25 08:19:39;;;;;;;;;;;;;;;-4.45;73.74;100737.03;6187140;23;19929;-67
2022/11/25 08:22:06;;;;;;;;;;;;;;;-4.39;73.67;100740.94;6186408;23;19947;-67
2022/11/25 08:24:32;;;;;;;;;;;;;;;-4.30;73.36;100739.16;6150059;23;20010;-67
2022/11/25 08:27:00;;;;;;;;;;;;;;;-4.35;73.36;100744.97;6186728;23;19919;-67
2022/11/25 08:29:25;;;;;;;;;;;;;;;-4.44;73.13;100752.06;6177905;23;20268;-67
2022/11/25 08:31:51;;;;;;;;;;;;;;;-4.49;73.33;100751.69;6126482;23;19994;-67
2022/11/25 08:34:18;;;;;;;;;;;;;;;-4.44;73.56;100748.56;6189459;23;19920;-67
2022/11/25 08:36:44;;;;;;;;;;;;;;;-4.36;73.39;100743.28;6201962;23;19974;-67
2022/11/25 08:39:11;;;;;;;;;;;;;;;-4.33;73.18;100755.50;6152463;23;20003;-67
2022/11/25 08:41:37;;;;;;;;;;;;;;;-4.36;73.06;100739.78;6129037;23;19920;-68
2022/11/25 08:44:04;;;;;;;;;;;;;;;-4.29;73.14;100751.53;6189309;23;19924;-68
2022/11/25 08:46:32;;;;;;;;;;;;;;;-4.34;72.95;100746.63;6179024;23;19927;-68
2022/11/25 08:48:59;;;;;;;;;;;;;;;-4.36;73.17;100745.97;6177648;23;19924;-68
2022/11/25 08:51:26;;;;;;;;;;;;;;;-4.25;73.20;100746.72;6177746;23;19955;-68
2022/11/25 08:53:52;;;;;;;;;;;;;;;-4.18;72.80;100745.09;6189939;23;20767;-68
2022/11/25 08:56:21;;;;;;;;;;;;;;;-4.21;73.09;100743.59;6178958;23;19920;-68
2022/11/25 08:58:48;;;;;;;;;;;;;;;-4.19;73.32;100754.09;6189196;23;19926;-68
2022/11/25 09:01:14;;;;;;;;;;;;;;;-4.14;72.97;100754.47;6180358;23;19920;-68
2022/11/25 09:03:41;;;;;;;;;;;;;;;-4.11;72.94;100756.00;6178304;23;19920;-68
2022/11/25 09:06:07;;;;;;;;;;;;;;;-4.06;72.84;100761.72;6179914;23;19920;-68
2022/11/25 09:08:33;;;;;;;;;;;;;;;-4.08;72.69;100764.56;6152571;23;20371;-69
2022/11/25 09:10:59;;;;;;;;;;;;;;;-4.09;72.47;100762.03;6186917;23;20352;-68
2022/11/25 09:13:26;;;;;;;;;;;;;;;-4.13;72.36;100761.53;6152794;23;19927;-68
2022/11/25 09:15:52;;;;;;;;;;;;;;;-4.12;72.55;100757.84;6179564;23;20002;-68
2022/11/25 09:18:19;;;;;;;;;;;;;;;-4.08;72.41;100758.34;6176017;23;20287;-68
2022/11/25 09:20:45;;;;;;;;;;;;;;;-4.06;72.02;100767.06;6174520;23;20331;-68
2022/11/25 09:23:11;;;;;;;;;;;;;;;-4.02;72.04;100761.25;6178328;23;19920;-68
2022/11/25 09:25:36;;;;;;;;;;;;;;;-4.04;72.04;100757.09;6175682;23;19920;-68
2022/11/25 09:28:03;;;;;;;;;;;;;;;-4.00;72.21;100753.09;6187223;23;19920;-68
2022/11/25 09:30:30;;;;;;;;;;;;;;;-3.92;71.82;100763.81;6158876;23;19920;-68
2022/11/25 09:32:56;;;;;;;;;;;;;;;-3.98;71.79;100759.13;6190166;23;19920;-68
2022/11/25 09:35:22;;;;;;;;;;;;;;;-4.00;71.97;100761.13;6177050;23;20344;-68
2022/11/25 09:37:48;;;;;;;;;;;;;;;-3.99;71.88;100750.25;6188878;23;20366;-68
2022/11/25 09:40:17;;;;;;;;;;;;;;;-4.05;71.84;100748.22;6178548;23;19940;-68
2022/11/25 09:48:29;;;;;;;;;;;;;;;-4.15;72.01;100758.13;6189749;23;19952;-69
2022/11/25 09:50:59;;;;;;;;;;;;;;;-4.12;72.29;100749.84;6188689;23;19927;-68
2022/11/25 09:53:34;;;;;;;;;;;;;;;-4.15;72.07;100747.47;6162594;23;19931;-68
2022/11/25 09:56:01;;;;;;;;;;;;;;;-4.15;72.24;100748.31;6181041;23;19951;-68
2022/11/25 09:58:31;;;;;;;;;;;;;;;-4.20;72.35;100749.75;6153305;23;19924;-68
2022/11/25 10:00:59;;;;;;;;;;;;;;;-4.19;72.50;100751.44;6191428;23;19950;-69
2022/11/25 10:03:29;;;;;;;;;;;;;;;-4.29;72.50;100752.38;6188485;23;19926;-68
2022/11/25 10:05:59;;;;;;;;;;;;;;;-4.35;72.97;100754.81;6152370;23;19920;-68
2022/11/25 10:08:27;;;;;;;;;;;;;;;-4.26;72.71;100756.56;6127795;23;19938;-69
2022/11/25 10:10:55;;;;;;;;;;;;;;;-4.21;72.79;100748.94;6190409;23;20316;-68
2022/11/25 10:13:26;;;;;;;;;;;;;;;-4.16;72.77;100751.97;6152344;23;20245;-68
2022/11/25 10:15:53;;;;;;;;;;;;;;;-4.18;72.54;100753.13;6187175;23;20010;-68
2022/11/25 10:18:22;;;;;;;;;;;;;;;-4.18;72.59;100758.44;6189491;23;19920;-69
2022/11/25 10:20:49;;;;;;;;;;;;;;;-4.23;72.66;100756.25;6180949;23;20303;-68
2022/11/25 10:23:18;;;;;;;;;;;;;;;-4.29;72.59;100767.56;6126602;23;19920;-68
2022/11/25 10:25:47;;;;;;;;;;;;;;;-4.33;73.11;100763.50;6153611;23;19927;-68
2022/11/25 10:28:16;;;;;;;;;;;;;;;-4.35;73.00;100781.53;6126915;23;19936;-69
2022/11/25 10:30:44;;;;;;;;;;;;;;;-4.39;73.05;100778.31;6176779;23;19920;-68
2022/11/25 10:33:13;;;;;;;;;;;;;;;-4.44;73.72;100784.09;6179870;23;20409;-68
2022/11/25 10:35:44;;;;;;;;;;;;;;;-4.41;73.51;100799.00;6155388;23;19920;-68
2022/11/25 10:38:12;;;;;;;;;;;;;;;-4.46;73.52;100785.25;6191539;23;19947;-68
2022/11/25 10:40:37;;;;;;;;;;;;;;;-4.34;73.39;100783.22;6180031;23;19926;-68
2022/11/25 10:43:08;;;;;;;;;;;;;;;-4.29;72.86;100783.56;6190606;23;20002;-68
2022/11/25 10:45:39;;;;;;;;;;;;;;;-4.29;72.80;100794.25;6190959;23;19924;-68
2022/11/25 10:48:12;;;;;;;;;;;;;;;-4.24;72.58;100788.47;6179503;23;20364;-68
2022/11/25 10:50:47;;;;;;;;;;;;;;;-4.25;72.47;100800.97;6189266;23;19999;-69
2022/11/25 10:53:15;;;;;;;;;;;;;;;-4.36;72.44;100796.69;6189896;23;20670;-68
2022/11/25 10:55:55;;;;;;;;;;;;;;;-4.35;72.90;100806.38;6177715;23;19920;-68
2022/11/25 10:58:25;;;;;;;;;;;;;;;-4.26;73.07;100807.31;6178009;23;19920;-68
2022/11/25 11:01:00;;;;;;;;;;;;;;;-4.22;72.86;100811.34;6178830;23;19919;-68
2022/11/25 11:03:26;;;;;;;;;;;;;;;-4.19;72.70;100810.22;6153990;23;19927;-68
2022/11/25 11:05:53;;;;;;;;;;;;;;;-4.19;73.09;100815.53;6165284;23;20275;-68
2022/11/25 11:08:21;;;;;;;;;;;;;;;-4.17;72.58;100811.75;6186842;23;19920;-68
2022/11/25 11:11:06;;;;;;;;;;;;;;;-4.18;72.78;100812.72;6188318;23;19924;-68
2022/11/25 11:13:32;;;;;;;;;;;;;;;-4.17;73.09;100818.91;6105209;23;19920;-69
2022/11/25 11:15:58;;;;;;;;;;;;;;;-4.14;73.08;100808.75;6188711;23;20241;-68
2022/11/25 11:18:25;;;;;;;;;;;;;;;-4.12;72.88;100813.97;6128321;23;19931;-68
2022/11/25 11:20:54;;;;;;;;;;;;;;;-4.14;72.98;100807.91;6188598;23;20352;-68
2022/11/25 11:23:20;;;;;;;;;;;;;;;-4.15;73.12;100809.75;6162031;23;19931;-68
2022/11/25 11:25:53;;;;;;;;;;;;;;;-4.16;73.03;100812.56;6165151;23;19920;-68
2022/11/25 11:28:27;;;;;;;;;;;;;;;-4.23;72.90;100812.34;6163673;23;19974;-68
2022/11/25 11:30:54;;;;;;;;;;;;;;;-4.34;73.25;100802.72;6178488;23;19920;-68
2022/11/25 11:33:28;;;;;;;;;;;;;;;-4.39;73.43;100807.69;6179810;23;19939;-68
2022/11/25 11:36:02;;;;;;;;;;;;;;;-4.47;73.75;100812.94;6128137;23;19978;-68
2022/11/25 11:38:31;;;;;;;;;;;;;;;-4.42;73.85;100805.31;6213128;23;20344;-67
2022/11/25 11:41:04;;;;;;;;;;;;;;;-4.34;73.88;100812.59;6162166;23;19926;-68
2022/11/25 11:43:55;;;;;;;;;;;;;;;-4.31;73.56;100817.63;6125890;23;19927;-67
2022/11/25 11:46:29;;;;;;;;;;;;;;;-4.36;73.33;100814.56;6131315;23;19996;-67
2022/11/25 11:49:01;;;;;;;;;;;;;;;-4.34;73.53;100816.06;6161564;23;19926;-67
2022/11/25 11:51:32;;;;;;;;;;;;;;;-4.37;73.30;100819.06;6178325;23;19920;-67
2022/11/25 11:54:05;;;;;;;;;;;;;;;-4.35;73.61;100826.94;6188773;23;19927;-67
2022/11/25 11:56:35;;;;;;;;;;;;;;;-4.34;73.51;100825.94;6178092;23;19920;-67
2022/11/25 11:59:09;;;;;;;;;;;;;;;-4.33;73.51;100831.09;6162524;23;19920;-67
2022/11/25 12:01:44;;;;;;;;;;;;;;;-4.38;73.51;100844.09;6187109;23;19920;-68
2022/11/25 12:04:14;;;;;;;;;;;;;;;-4.37;73.46;100844.91;6187911;23;19962;-68
2022/11/25 12:06:44;;;;;;;;;;;;;;;-4.41;73.51;100847.06;6152159;23;20222;-67
2022/11/25 12:09:12;;;;;;;;;;;;;;;-4.38;73.48;100845.91;6178718;23;19920;-67
2022/11/25 12:11:42;;;;;;;;;;;;;;;-4.36;73.65;100843.94;6188904;23;20267;-67
2022/11/25 12:14:10;;;;;;;;;;;;;;;-4.37;73.65;100844.91;6179259;23;19919;-67
2022/11/25 12:16:39;;;;;;;;;;;;;;;-4.36;73.58;100841.28;6178979;23;20003;-67
2022/11/25 12:19:09;;;;;;;;;;;;;;;-4.38;73.69;100853.91;6187869;23;19931;-68
2022/11/25 12:21:40;;;;;;;;;;;;;;;-4.38;73.78;100843.22;6187392;23;19920;-67
2022/11/25 12:24:12;;;;;;;;;;;;;;;-4.37;73.80;100845.75;6188503;23;19920;-67
2022/11/25 12:26:42;;;;;;;;;;;;;;;-4.40;73.81;100843.41;6179069;23;19926;-67
2022/11/25 12:29:09;;;;;;;;;;;;;;;-4.36;73.98;100842.09;6180024;23;20352;-68
2022/11/25 12:31:37;;;;;;;;;;;;;;;-4.31;73.54;100845.16;6189236;23;19951;-67
2022/11/25 12:34:06;;;;;;;;;;;;;;;-4.27;73.73;100853.69;6179782;23;19952;-67
2022/11/25 12:36:34;;;;;;;;;;;;;;;-4.29;73.49;100845.00;6161076;23;19924;-68
2022/11/25 12:39:01;;;;;;;;;;;;;;;-4.35;73.42;100848.28;6178624;23;19924;-67
2022/11/25 12:41:34;;;;;;;;;;;;;;;-4.38;73.83;100859.25;6187491;23;19920;-67
2022/11/25 12:44:04;;;;;;;;;;;;;;;-4.36;73.81;100865.31;6177659;23;20027;-67
2022/11/25 12:46:34;;;;;;;;;;;;;;;-4.39;73.65;100865.59;6203017;23;19920;-67
2022/11/25 12:49:00;;;;;;;;;;;;;;;-4.36;73.85;100859.97;6191357;23;20340;-68